Time;durP1;ratioP1;P1;durP2;ratioP2;P2;SDS_P1;SDS_P2;PMS_P1;PMS_P2;Temp;Humidity;BMP_temperature;BMP_pressure;BME280_temperature;BME280_humidity;BME280_pressure;Samples;Min_cycle;Max_cycle;Signal;HPM_P1;HPM_P2
2022/01/06 00:01:40;;;;;;;17.98;3.72;;;26.70;99.90;;;;;;5061433;28;20227;-93
2022/01/06 00:04:14;;;;;;;24.38;3.83;;;26.80;99.90;;;;;;5063532;28;20211;-93
2022/01/06 00:06:47;;;;;;;18.00;3.80;;;26.70;99.90;;;;;;5060859;28;20223;-93
2022/01/06 00:09:21;;;;;;;19.88;4.40;;;26.70;99.90;;;;;;5060358;28;20698;-93
2022/01/06 00:11:51;;;;;;;15.70;3.30;;;26.80;99.90;;;;;;5060898;28;20232;-94
2022/01/06 00:14:36;;;;;;;17.52;3.60;;;26.80;99.90;;;;;;5063329;28;20207;-94
2022/01/06 00:17:23;;;;;;;21.20;4.47;;;26.80;99.90;;;;;;5058214;28;20416;-94
2022/01/06 00:25:31;;;;;;;21.13;4.07;;;27.10;99.90;;;;;;5062451;28;20244;-96
2022/01/06 00:28:02;;;;;;;21.88;4.10;;;27.10;99.90;;;;;;5058192;28;20230;-92
2022/01/06 00:30:33;;;;;;;20.67;3.72;;;27.00;99.90;;;;;;5070793;28;20246;-91
2022/01/06 00:33:04;;;;;;;20.25;4.07;;;26.90;99.90;;;;;;5062078;28;20206;-93
2022/01/06 00:35:35;;;;;;;19.83;3.80;;;27.00;99.90;;;;;;5064441;28;20276;-95
2022/01/06 00:38:08;;;;;;;19.75;4.05;;;27.00;99.90;;;;;;5056879;28;20238;-94
2022/01/06 00:40:41;;;;;;;17.75;4.38;;;27.20;99.90;;;;;;5058943;28;20405;-93
2022/01/06 00:43:13;;;;;;;17.13;3.58;;;27.30;99.90;;;;;;5059543;28;20260;-91
2022/01/06 00:45:44;;;;;;;19.65;4.03;;;27.40;99.90;;;;;;5057992;28;20214;-94
2022/01/06 00:48:16;;;;;;;22.30;3.83;;;27.50;99.90;;;;;;5060063;28;20296;-95
2022/01/06 00:50:47;;;;;;;16.95;3.40;;;27.40;99.90;;;;;;5056595;28;20226;-90
2022/01/06 00:53:18;;;;;;;17.80;3.50;;;27.40;99.90;;;;;;5061573;28;20258;-94
2022/01/06 00:55:51;;;;;;;19.35;3.60;;;27.40;99.90;;;;;;5061545;28;20230;-96
2022/01/06 00:58:23;;;;;;;18.33;3.42;;;27.50;99.90;;;;;;5069558;28;20220;-93
2022/01/06 01:00:55;;;;;;;19.67;3.90;;;27.50;99.90;;;;;;5075797;28;20207;-94
2022/01/06 01:03:27;;;;;;;18.83;3.88;;;27.40;99.90;;;;;;5064174;28;20199;-94
2022/01/06 01:06:01;;;;;;;21.08;4.00;;;27.40;99.90;;;;;;5062729;28;20230;-95
2022/01/06 01:08:34;;;;;;;17.55;3.65;;;27.40;99.90;;;;;;5064361;28;20303;-90
2022/01/06 01:11:07;;;;;;;21.52;4.20;;;27.40;99.90;;;;;;5056001;28;20214;-90
2022/01/06 01:13:54;;;;;;;19.08;3.83;;;27.40;99.90;;;;;;5056265;28;20236;-87
2022/01/06 01:16:30;;;;;;;20.45;3.85;;;27.40;99.90;;;;;;5058028;28;20594;-89
2022/01/06 01:19:03;;;;;;;17.33;3.17;;;27.40;99.90;;;;;;5058025;28;20699;-87
2022/01/06 01:21:34;;;;;;;15.52;2.83;;;27.40;99.90;;;;;;5056959;28;20192;-86
2022/01/06 01:24:04;;;;;;;16.65;3.83;;;27.40;99.90;;;;;;5057498;28;20196;-88
2022/01/06 01:26:38;;;;;;;15.30;3.35;;;27.40;99.90;;;;;;5057220;28;20228;-89
2022/01/06 01:29:15;;;;;;;15.35;3.63;;;27.40;99.90;;;;;;5054468;28;20219;-91
2022/01/06 01:31:49;;;;;;;17.80;3.88;;;27.40;99.90;;;;;;5058201;28;20627;-89
2022/01/06 01:34:23;;;;;;;21.92;4.25;;;27.40;99.90;;;;;;5055942;28;20203;-88
2022/01/06 01:36:55;;;;;;;18.77;3.15;;;27.40;99.90;;;;;;5056897;28;20681;-94
2022/01/06 01:39:27;;;;;;;21.70;3.83;;;27.40;99.90;;;;;;5055119;28;20580;-89
2022/01/06 01:41:59;;;;;;;21.13;3.65;;;27.40;99.90;;;;;;5057834;28;20295;-89
2022/01/06 01:44:33;;;;;;;18.35;3.30;;;27.50;99.90;;;;;;5057081;28;20277;-88
2022/01/06 01:47:13;;;;;;;18.95;3.63;;;27.60;99.90;;;;;;5056222;28;20600;-87
2022/01/06 01:49:50;;;;;;;20.50;4.05;;;27.60;99.90;;;;;;5056705;28;20244;-88
2022/01/06 01:52:21;;;;;;;20.70;4.05;;;27.70;99.90;;;;;;5060410;28;21046;-89
2022/01/06 01:54:52;;;;;;;18.90;3.72;;;27.60;99.90;;;;;;5062347;28;20224;-88
2022/01/06 01:57:27;;;;;;;22.17;4.25;;;27.60;99.90;;;;;;5061826;28;20223;-93
2022/01/06 01:59:57;;;;;;;14.70;3.10;;;27.50;99.90;;;;;;5062327;28;20315;-89
2022/01/06 02:02:29;;;;;;;20.52;3.83;;;27.40;99.90;;;;;;5061414;28;20199;-88
2022/01/06 02:05:00;;;;;;;17.52;3.33;;;27.40;99.90;;;;;;5063528;28;20353;-94
2022/01/06 02:07:32;;;;;;;19.80;3.70;;;27.30;99.90;;;;;;5064138;28;20216;-95
2022/01/06 02:10:04;;;;;;;16.77;3.83;;;27.20;99.90;;;;;;5064129;28;20211;-94
2022/01/06 02:12:39;;;;;;;23.60;4.68;;;27.20;99.90;;;;;;5074008;28;20219;-87
2022/01/06 02:15:14;;;;;;;16.40;3.33;;;27.30;99.90;;;;;;5060622;28;20219;-90
2022/01/06 02:17:45;;;;;;;16.40;3.67;;;27.30;99.90;;;;;;5060250;28;20924;-92
2022/01/06 02:20:22;;;;;;;15.57;3.33;;;27.50;99.90;;;;;;5062492;28;20227;-90
2022/01/06 02:22:55;;;;;;;19.08;3.97;;;27.60;99.90;;;;;;5063639;28;20224;-90
2022/01/06 02:25:32;;;;;;;20.38;3.92;;;27.60;99.90;;;;;;5061313;28;20321;-90
2022/01/06 02:28:05;;;;;;;18.30;3.38;;;27.80;99.90;;;;;;5059742;28;20219;-89
2022/01/06 02:30:37;;;;;;;21.73;3.83;;;27.80;99.90;;;;;;5060172;28;20192;-88
2022/01/06 02:33:09;;;;;;;15.45;3.25;;;27.80;99.90;;;;;;5060094;28;20219;-89
2022/01/06 02:35:44;;;;;;;19.17;3.65;;;27.70;99.90;;;;;;5060737;28;20323;-90
2022/01/06 02:38:16;;;;;;;18.00;3.30;;;27.80;99.90;;;;;;5057511;28;20201;-90
2022/01/06 02:40:47;;;;;;;17.60;3.33;;;27.80;99.90;;;;;;5060401;28;20196;-89
2022/01/06 02:43:24;;;;;;;17.98;3.83;;;27.80;99.90;;;;;;5058761;28;20218;-88
2022/01/06 02:45:56;;;;;;;22.02;3.80;;;27.60;99.90;;;;;;5060431;28;20672;-90
2022/01/06 02:48:26;;;;;;;17.40;3.63;;;27.50;99.90;;;;;;5058050;28;20242;-90
2022/01/06 02:51:00;;;;;;;16.17;3.08;;;27.60;99.90;;;;;;5062467;28;20288;-89
2022/01/06 02:53:31;;;;;;;15.82;3.63;;;27.60;99.90;;;;;;5060125;28;20196;-88
2022/01/06 02:56:02;;;;;;;16.10;3.28;;;27.60;99.90;;;;;;5058930;28;20975;-89
2022/01/06 02:58:33;;;;;;;19.52;3.53;;;27.60;99.90;;;;;;5068934;28;20215;-90
2022/01/06 03:01:03;;;;;;;17.88;3.58;;;27.70;99.90;;;;;;5059193;28;20204;-91
2022/01/06 03:03:34;;;;;;;18.85;3.50;;;27.80;99.90;;;;;;5061846;28;20223;-92
2022/01/06 03:06:08;;;;;;;21.25;3.85;;;27.70;99.90;;;;;;5059390;28;20232;-90
2022/01/06 03:08:39;;;;;;;22.85;3.53;;;27.60;99.90;;;;;;5059712;28;20206;-90
2022/01/06 03:11:10;;;;;;;16.67;3.92;;;27.50;99.90;;;;;;5061223;28;20237;-88
2022/01/06 03:13:42;;;;;;;16.58;3.47;;;27.50;99.90;;;;;;5064994;28;20285;-94
2022/01/06 03:16:13;;;;;;;19.60;4.82;;;27.60;99.90;;;;;;5063134;28;20204;-95
2022/01/06 03:18:45;;;;;;;18.63;3.60;;;27.70;99.90;;;;;;5059782;28;20223;-89
2022/01/06 03:21:20;;;;;;;19.80;3.42;;;27.60;99.90;;;;;;5062010;28;20207;-90
2022/01/06 03:23:52;;;;;;;21.92;4.00;;;27.60;99.90;;;;;;5059792;28;20724;-91
2022/01/06 03:26:24;;;;;;;20.27;3.95;;;27.60;99.90;;;;;;5067170;28;20188;-90
2022/01/06 03:28:56;;;;;;;18.92;4.10;;;27.60;99.90;;;;;;5061189;28;20228;-91
2022/01/06 03:31:28;;;;;;;18.95;3.40;;;27.70;99.90;;;;;;5062156;28;20682;-91
2022/01/06 03:33:59;;;;;;;24.58;3.80;;;27.60;99.90;;;;;;5059717;28;20232;-90
2022/01/06 03:36:32;;;;;;;19.20;3.58;;;27.60;99.90;;;;;;5061309;28;20200;-87
2022/01/06 03:39:04;;;;;;;21.42;3.60;;;27.70;99.90;;;;;;5062425;28;20220;-90
2022/01/06 03:41:36;;;;;;;18.70;3.42;;;27.90;99.90;;;;;;5058631;28;20223;-90
2022/01/06 03:44:07;;;;;;;22.13;4.05;;;28.00;99.90;;;;;;5060966;28;20215;-92
2022/01/06 03:46:38;;;;;;;19.00;3.60;;;28.10;99.90;;;;;;5060041;28;20200;-93
2022/01/06 03:49:09;;;;;;;18.20;3.63;;;28.20;99.90;;;;;;5058410;28;20227;-90
2022/01/06 03:51:42;;;;;;;26.00;3.90;;;28.00;99.90;;;;;;5062356;28;20223;-91
2022/01/06 03:54:14;;;;;;;19.27;3.70;;;28.00;99.90;;;;;;5058623;28;20226;-89
2022/01/06 03:56:48;;;;;;;17.13;3.50;;;28.00;99.90;;;;;;5058927;28;20188;-92
2022/01/06 03:59:21;;;;;;;22.00;3.67;;;28.00;99.90;;;;;;5059908;28;20394;-93
2022/01/06 04:01:53;;;;;;;22.40;3.45;;;28.00;99.90;;;;;;5062461;28;20457;-89
2022/01/06 04:04:23;;;;;;;19.70;3.83;;;28.10;99.90;;;;;;5066405;28;20592;-91
2022/01/06 04:06:57;;;;;;;18.00;3.50;;;28.20;99.90;;;;;;5062089;28;20232;-90
2022/01/06 04:09:28;;;;;;;19.88;4.40;;;28.20;99.90;;;;;;5059024;28;20218;-94
2022/01/06 04:12:00;;;;;;;15.85;3.13;;;28.10;99.90;;;;;;5065829;28;20698;-91
2022/01/06 04:14:31;;;;;;;21.08;3.92;;;28.10;99.90;;;;;;5058369;28;20268;-90
2022/01/06 04:17:06;;;;;;;16.70;3.20;;;28.20;99.90;;;;;;5069854;28;20199;-89
2022/01/06 04:19:38;;;;;;;22.17;4.20;;;28.20;99.90;;;;;;5071312;28;20265;-90
2022/01/06 04:22:19;;;;;;;17.13;4.25;;;28.30;99.90;;;;;;5072935;28;20242;-94
2022/01/06 04:25:06;;;;;;;22.00;4.05;;;28.30;99.90;;;;;;5075673;28;20231;-95
2022/01/06 04:27:44;;;;;;;20.73;3.80;;;28.20;99.90;;;;;;5066511;28;20192;-96
2022/01/06 04:30:15;;;;;;;18.92;4.07;;;28.30;99.90;;;;;;5072644;28;20319;-90
2022/01/06 04:32:46;;;;;;;19.27;4.07;;;28.30;99.90;;;;;;5072164;28;20192;-91
2022/01/06 04:35:17;;;;;;;19.73;4.18;;;28.10;99.90;;;;;;5072319;28;20192;-92
2022/01/06 04:37:50;;;;;;;18.33;3.63;;;27.90;99.90;;;;;;5069954;28;20222;-93
2022/01/06 04:40:22;;;;;;;24.40;3.70;;;27.90;99.90;;;;;;5072561;28;20311;-94
2022/01/06 04:42:54;;;;;;;16.08;3.65;;;27.80;99.90;;;;;;5071509;28;20200;-94
2022/01/06 04:45:28;;;;;;;17.05;3.65;;;27.90;99.90;;;;;;5087716;28;20199;-94
2022/01/06 04:47:58;;;;;;;25.67;4.72;;;28.00;99.90;;;;;;5076806;28;20226;-94
2022/01/06 04:50:31;;;;;;;14.70;3.15;;;28.10;99.90;;;;;;5076819;28;20188;-96
2022/01/06 04:53:06;;;;;;;21.35;4.10;;;28.20;99.90;;;;;;5077148;28;20230;-91
2022/01/06 04:55:39;;;;;;;20.88;3.53;;;28.40;99.90;;;;;;5068584;28;20198;-90
2022/01/06 04:58:10;;;;;;;19.05;3.55;;;28.20;99.90;;;;;;5066763;28;20219;-88
2022/01/06 05:00:41;;;;;;;18.20;3.60;;;28.10;99.90;;;;;;5071857;28;20235;-89
2022/01/06 05:03:12;;;;;;;22.58;4.05;;;28.10;99.90;;;;;;5070496;28;20225;-90
2022/01/06 05:05:43;;;;;;;17.30;3.70;;;28.10;99.90;;;;;;5067633;28;20224;-88
2022/01/06 05:08:16;;;;;;;19.77;3.75;;;27.90;99.90;;;;;;5071680;28;20277;-90
2022/01/06 05:10:48;;;;;;;22.23;4.20;;;27.70;99.90;;;;;;5068615;28;20237;-88
2022/01/06 05:13:20;;;;;;;19.20;4.00;;;27.70;99.90;;;;;;5071215;28;20248;-91
2022/01/06 05:15:51;;;;;;;17.52;3.97;;;27.60;99.90;;;;;;5052245;28;20201;-88
2022/01/06 05:18:21;;;;;;;19.67;3.80;;;27.70;99.90;;;;;;5069184;28;20223;-90
2022/01/06 05:20:52;;;;;;;21.33;3.78;;;27.70;99.90;;;;;;5064805;28;20455;-92
2022/01/06 05:23:26;;;;;;;20.35;3.80;;;27.70;99.90;;;;;;5085390;28;20351;-90
2022/01/06 05:25:58;;;;;;;17.83;3.72;;;27.70;99.90;;;;;;5064824;28;20207;-89
2022/01/06 05:28:29;;;;;;;18.90;3.83;;;27.70;99.90;;;;;;5075702;28;20216;-90
2022/01/06 05:31:01;;;;;;;21.58;4.18;;;27.70;99.90;;;;;;5073781;28;20655;-94
2022/01/06 05:33:32;;;;;;;21.20;3.90;;;27.80;99.90;;;;;;5079939;28;20219;-92
2022/01/06 05:36:04;;;;;;;21.52;3.80;;;28.00;99.90;;;;;;5077209;28;20195;-94
2022/01/06 05:38:38;;;;;;;18.63;3.70;;;28.00;99.90;;;;;;5075820;28;20195;-93
2022/01/06 05:41:11;;;;;;;22.92;4.00;;;28.10;99.90;;;;;;5075214;28;20316;-90
2022/01/06 05:43:43;;;;;;;18.75;3.72;;;28.30;99.90;;;;;;5060924;28;20197;-90
2022/01/06 05:46:15;;;;;;;21.33;4.53;;;28.30;99.90;;;;;;5073320;28;20199;-91
2022/01/06 05:48:47;;;;;;;19.98;4.07;;;28.10;99.90;;;;;;5074919;28;20220;-90
2022/01/06 05:51:19;;;;;;;21.98;4.40;;;27.90;99.90;;;;;;5080287;28;20214;-91
2022/01/06 05:53:54;;;;;;;19.58;3.80;;;28.00;99.90;;;;;;5064929;28;20225;-92
2022/01/06 05:56:27;;;;;;;18.70;3.97;;;27.90;99.90;;;;;;5068445;28;20192;-94
2022/01/06 05:59:00;;;;;;;25.35;4.57;;;27.90;99.90;;;;;;5075117;28;20212;-92
2022/01/06 06:01:31;;;;;;;19.02;3.88;;;28.10;99.90;;;;;;5066404;28;20226;-90
2022/01/06 06:04:03;;;;;;;23.35;4.18;;;27.90;99.90;;;;;;5069550;28;20333;-89
2022/01/06 06:06:37;;;;;;;20.92;4.35;;;27.80;99.90;;;;;;5075393;28;20234;-90
2022/01/06 06:09:11;;;;;;;19.67;4.47;;;27.60;99.90;;;;;;5056123;28;20235;-88
2022/01/06 06:11:42;;;;;;;24.58;4.45;;;27.40;99.90;;;;;;5076548;28;20211;-89
2022/01/06 06:14:14;;;;;;;27.58;4.85;;;27.40;99.90;;;;;;5073484;28;20200;-91
2022/01/06 06:16:45;;;;;;;19.42;3.60;;;27.40;99.90;;;;;;5074175;28;20204;-89
2022/01/06 06:19:17;;;;;;;18.00;3.67;;;27.40;99.90;;;;;;5073074;28;20266;-90
2022/01/06 06:21:48;;;;;;;24.23;4.00;;;27.50;99.90;;;;;;5074495;28;20200;-89
2022/01/06 06:24:23;;;;;;;21.15;3.80;;;27.60;99.90;;;;;;5061053;28;20262;-90
2022/01/06 06:26:54;;;;;;;21.95;4.18;;;27.60;99.90;;;;;;5072196;28;20223;-86
2022/01/06 06:29:25;;;;;;;22.23;3.88;;;28.00;99.90;;;;;;5073604;28;20192;-86
2022/01/06 06:31:56;;;;;;;24.13;3.63;;;28.10;99.90;;;;;;5082797;28;20690;-88
2022/01/06 06:34:26;;;;;;;17.73;3.13;;;28.10;99.90;;;;;;5077093;28;20208;-90
2022/01/06 06:36:57;;;;;;;19.00;3.83;;;28.20;99.90;;;;;;5074926;28;20228;-89
2022/01/06 06:39:29;;;;;;;16.00;3.15;;;28.10;99.90;;;;;;5067053;28;20258;-89
2022/01/06 06:42:01;;;;;;;17.20;3.95;;;28.00;99.90;;;;;;5064673;28;20216;-89
2022/01/06 06:44:32;;;;;;;18.60;4.22;;;28.10;99.90;;;;;;5072843;28;20204;-90
2022/01/06 06:47:04;;;;;;;20.27;4.25;;;28.70;99.90;;;;;;5073120;28;20188;-89
2022/01/06 06:49:40;;;;;;;24.88;4.47;;;29.10;99.90;;;;;;5074782;28;20216;-95
2022/01/06 06:52:12;;;;;;;23.08;4.45;;;29.60;99.90;;;;;;5075152;28;20203;-94
2022/01/06 06:54:48;;;;;;;19.27;3.85;;;29.50;99.90;;;;;;5076085;28;20204;-95
2022/01/06 06:57:20;;;;;;;23.13;4.22;;;29.00;99.90;;;;;;5088958;28;20190;-89
2022/01/06 06:59:52;;;;;;;20.83;4.32;;;28.90;99.90;;;;;;5070717;28;20216;-95
2022/01/06 07:02:34;;;;;;;19.23;4.00;;;28.70;99.90;;;;;;5070652;28;20204;-93
2022/01/06 07:05:06;;;;;;;18.60;3.70;;;28.50;99.90;;;;;;5083252;28;20293;-94
2022/01/06 07:07:39;;;;;;;19.95;4.05;;;28.60;99.90;;;;;;5081387;28;20539;-95
2022/01/06 07:10:14;;;;;;;17.50;4.10;;;28.60;99.90;;;;;;5093200;28;20176;-94
2022/01/06 07:12:49;;;;;;;19.30;4.22;;;28.40;99.90;;;;;;5091438;28;20204;-95
2022/01/06 07:15:22;;;;;;;21.35;4.25;;;28.00;99.90;;;;;;5080685;28;20195;-91
2022/01/06 07:17:54;;;;;;;17.08;4.07;;;27.90;99.90;;;;;;5081547;28;20236;-94
2022/01/06 07:20:25;;;;;;;20.52;3.78;;;28.00;99.90;;;;;;5086661;28;20208;-93
2022/01/06 07:22:57;;;;;;;18.05;3.97;;;27.80;99.90;;;;;;5079644;28;20247;-94
2022/01/06 07:25:31;;;;;;;21.80;3.88;;;27.90;99.90;;;;;;5067913;28;20199;-95
2022/01/06 07:28:03;;;;;;;22.00;4.10;;;28.20;99.90;;;;;;5082232;28;20219;-94
2022/01/06 07:30:34;;;;;;;22.20;5.05;;;28.20;99.90;;;;;;5080561;28;20228;-91
2022/01/06 07:33:07;;;;;;;18.73;4.05;;;28.30;99.90;;;;;;5071959;28;20277;-89
2022/01/06 07:35:39;;;;;;;19.08;3.97;;;28.20;99.90;;;;;;5073523;28;20204;-89
2022/01/06 07:38:10;;;;;;;19.27;4.00;;;28.10;99.90;;;;;;5070047;28;20215;-87
2022/01/06 07:40:43;;;;;;;18.55;4.07;;;28.00;99.90;;;;;;5058891;28;20224;-90
2022/01/06 07:43:15;;;;;;;25.00;4.60;;;27.90;99.90;;;;;;5058246;28;20192;-89
2022/01/06 07:45:48;;;;;;;23.35;4.28;;;27.80;99.90;;;;;;5072803;28;20227;-89
2022/01/06 07:48:25;;;;;;;23.52;4.32;;;27.60;99.90;;;;;;5079194;28;20195;-87
2022/01/06 07:50:57;;;;;;;19.13;3.92;;;27.50;99.90;;;;;;5073276;28;20561;-88
2022/01/06 07:53:29;;;;;;;21.42;4.20;;;27.40;99.90;;;;;;5072824;28;20192;-87
2022/01/06 07:56:04;;;;;;;20.27;4.50;;;27.20;99.90;;;;;;5072028;28;20212;-92
2022/01/06 07:58:36;;;;;;;23.42;4.28;;;27.20;99.90;;;;;;5075373;28;20184;-93
2022/01/06 08:01:08;;;;;;;17.55;3.65;;;27.10;99.90;;;;;;5072651;28;20235;-93
2022/01/06 08:03:40;;;;;;;28.75;4.35;;;27.00;99.90;;;;;;5070901;28;20195;-90
2022/01/06 08:06:12;;;;;;;19.95;4.15;;;26.90;99.90;;;;;;5058807;28;20707;-89
2022/01/06 08:08:43;;;;;;;19.90;4.13;;;26.90;99.90;;;;;;5071860;28;20212;-87
2022/01/06 08:11:17;;;;;;;22.42;4.35;;;26.80;99.90;;;;;;5071576;28;20248;-88
2022/01/06 08:13:48;;;;;;;23.27;4.32;;;26.70;99.90;;;;;;5072160;28;20210;-87
2022/01/06 08:16:19;;;;;;;20.42;4.10;;;26.60;99.90;;;;;;5067847;28;20214;-88
2022/01/06 08:18:50;;;;;;;18.98;3.53;;;26.60;99.90;;;;;;5072015;28;20196;-87
2022/01/06 08:21:21;;;;;;;21.88;4.07;;;26.50;99.90;;;;;;5070751;28;20216;-89
2022/01/06 08:23:51;;;;;;;23.52;4.20;;;26.50;99.90;;;;;;5069133;28;20200;-91
2022/01/06 08:26:25;;;;;;;20.55;3.90;;;26.50;99.90;;;;;;5071158;28;20196;-91
2022/01/06 08:28:56;;;;;;;19.20;3.53;;;26.50;99.90;;;;;;5071880;28;20838;-91
2022/01/06 08:31:27;;;;;;;20.40;3.75;;;26.40;99.90;;;;;;5071224;28;20192;-89
2022/01/06 08:33:59;;;;;;;24.65;4.25;;;26.40;99.90;;;;;;5071228;28;20269;-89
2022/01/06 08:36:31;;;;;;;23.05;4.50;;;26.30;99.90;;;;;;5072892;28;20554;-90
2022/01/06 08:39:01;;;;;;;20.45;3.95;;;26.30;99.90;;;;;;5069671;28;20578;-89
2022/01/06 08:41:35;;;;;;;20.17;4.20;;;26.30;99.90;;;;;;5057667;28;20224;-87
2022/01/06 08:44:07;;;;;;;17.98;4.10;;;26.30;99.90;;;;;;5072267;28;20216;-91
2022/01/06 08:46:37;;;;;;;22.58;4.05;;;26.20;99.90;;;;;;5071559;28;20248;-91
2022/01/06 08:49:11;;;;;;;20.50;3.85;;;26.20;99.90;;;;;;5063211;28;20212;-91
2022/01/06 08:51:42;;;;;;;25.13;4.45;;;26.10;99.90;;;;;;5072011;28;20586;-90
2022/01/06 08:54:14;;;;;;;21.98;4.13;;;26.00;99.90;;;;;;5070523;28;20223;-91
2022/01/06 08:56:46;;;;;;;20.00;4.72;;;26.00;99.90;;;;;;5070377;28;20256;-90
2022/01/06 08:59:17;;;;;;;20.40;3.88;;;26.00;99.90;;;;;;5072018;28;20212;-90
2022/01/06 09:01:49;;;;;;;21.88;4.45;;;26.00;99.90;;;;;;5076304;28;20231;-92
2022/01/06 09:04:20;;;;;;;21.13;5.30;;;26.00;99.90;;;;;;5078290;28;20216;-92
2022/01/06 09:06:53;;;;;;;22.50;4.35;;;26.00;99.90;;;;;;5079247;28;20224;-92
2022/01/06 09:09:26;;;;;;;22.73;4.18;;;26.00;99.90;;;;;;5077260;28;20240;-92
2022/01/06 09:12:00;;;;;;;27.27;4.55;;;26.00;99.90;;;;;;5075583;28;20667;-94
2022/01/06 09:14:32;;;;;;;16.02;3.78;;;25.90;99.90;;;;;;5076622;28;20223;-89
2022/01/06 09:17:04;;;;;;;25.30;4.50;;;25.90;99.90;;;;;;5075993;28;20188;-94
2022/01/06 09:19:36;;;;;;;17.98;4.22;;;25.90;99.90;;;;;;5075613;28;20663;-92
2022/01/06 09:22:07;;;;;;;20.85;4.38;;;25.80;99.90;;;;;;5084954;28;20226;-93
2022/01/06 09:24:39;;;;;;;23.58;4.20;;;25.80;99.90;;;;;;5074132;28;20230;-92
2022/01/06 09:27:34;;;;;;;25.95;4.03;;;25.90;99.90;;;;;;5083389;28;20294;-93
2022/01/06 09:30:09;;;;;;;22.42;4.25;;;25.80;99.90;;;;;;5086050;28;20202;-94
2022/01/06 09:32:41;;;;;;;22.05;4.75;;;25.80;99.90;;;;;;5086877;28;20188;-94
2022/01/06 09:35:14;;;;;;;17.75;3.75;;;25.80;99.90;;;;;;5087904;28;20196;-93
2022/01/06 09:37:46;;;;;;;17.85;3.90;;;25.70;99.90;;;;;;5093747;28;20219;-91
2022/01/06 09:40:18;;;;;;;24.60;4.25;;;25.70;99.90;;;;;;5088326;28;20196;-94
2022/01/06 09:43:17;;;;;;;21.00;4.32;;;25.60;99.90;;;;;;5085949;28;20232;-96
2022/01/06 09:45:57;;;;;;;25.48;3.83;;;25.50;99.90;;;;;;5083695;28;20203;-95
2022/01/06 09:48:36;;;;;;;19.92;4.15;;;25.40;99.90;;;;;;5093560;28;20186;-96
2022/01/06 09:51:12;;;;;;;28.15;4.57;;;25.30;99.90;;;;;;5094144;28;20199;-93
2022/01/06 09:53:48;;;;;;;22.05;4.55;;;25.30;99.90;;;;;;5092708;28;20227;-96
2022/01/06 09:56:22;;;;;;;20.88;4.10;;;25.20;99.90;;;;;;5095931;28;20210;-94
2022/01/06 09:59:20;;;;;;;20.95;3.63;;;25.20;99.90;;;;;;5078600;28;20220;-93
2022/01/06 10:02:00;;;;;;;20.30;3.72;;;25.10;99.90;;;;;;5091644;28;20228;-93
2022/01/06 10:04:34;;;;;;;19.00;3.92;;;25.10;99.90;;;;;;5086418;28;20214;-89
2022/01/06 10:07:08;;;;;;;20.48;3.75;;;25.00;99.90;;;;;;5076638;28;20231;-90
2022/01/06 10:09:42;;;;;;;19.63;3.65;;;25.00;99.90;;;;;;5085883;28;20227;-88
2022/01/06 10:12:18;;;;;;;23.92;4.22;;;24.90;99.90;;;;;;5083518;28;20195;-90
2022/01/06 10:14:52;;;;;;;22.80;3.67;;;24.90;99.90;;;;;;5083601;28;20223;-90
2022/01/06 10:17:34;;;;;;;23.45;4.25;;;24.90;99.90;;;;;;5082006;28;20210;-87
2022/01/06 10:20:15;;;;;;;17.05;3.20;;;24.90;99.90;;;;;;5081286;28;20224;-88
2022/01/06 10:22:52;;;;;;;28.17;4.88;;;24.90;99.90;;;;;;5088781;28;20216;-88
2022/01/06 10:25:28;;;;;;;19.50;3.50;;;24.90;99.90;;;;;;5089219;28;20219;-85
2022/01/06 10:27:59;;;;;;;19.60;3.45;;;24.90;99.90;;;;;;5087392;28;20206;-86
2022/01/06 10:30:36;;;;;;;22.17;4.55;;;24.90;99.90;;;;;;5088777;28;20265;-89
2022/01/06 10:33:07;;;;;;;20.13;3.78;;;25.00;99.90;;;;;;5090350;28;20192;-89
2022/01/06 10:35:41;;;;;;;20.33;4.00;;;25.00;99.90;;;;;;5091167;28;20254;-88
2022/01/06 10:38:12;;;;;;;28.42;4.45;;;25.00;99.90;;;;;;5086965;28;20196;-89
2022/01/06 10:40:45;;;;;;;21.02;3.65;;;25.00;99.90;;;;;;5080048;28;20196;-91
2022/01/06 10:43:16;;;;;;;27.05;4.65;;;25.10;99.90;;;;;;5090458;28;20207;-88
2022/01/06 10:45:51;;;;;;;26.98;4.65;;;25.10;99.90;;;;;;5083862;28;20204;-87
2022/01/06 10:48:27;;;;;;;24.17;4.20;;;25.00;99.90;;;;;;5080898;28;20196;-87
2022/01/06 10:51:01;;;;;;;17.63;3.83;;;25.10;99.90;;;;;;5087826;28;20203;-86
2022/01/06 10:53:33;;;;;;;21.63;4.10;;;25.10;99.90;;;;;;5086684;28;20237;-88
2022/01/06 10:56:05;;;;;;;20.45;4.07;;;25.10;99.90;;;;;;5074544;28;20204;-85
2022/01/06 10:58:37;;;;;;;21.13;3.75;;;25.00;99.90;;;;;;5088091;28;20212;-89
2022/01/06 11:01:21;;;;;;;24.10;4.32;;;25.00;99.90;;;;;;5081764;28;20227;-91
2022/01/06 11:03:53;;;;;;;18.58;3.75;;;25.10;99.90;;;;;;5081651;28;20216;-88
2022/01/06 11:06:27;;;;;;;24.30;4.30;;;25.00;99.90;;;;;;5082000;28;20238;-89
2022/01/06 11:09:01;;;;;;;27.30;4.90;;;25.00;99.90;;;;;;5068639;28;20221;-88
2022/01/06 11:11:45;;;;;;;19.17;3.53;;;25.10;99.90;;;;;;5088137;28;20211;-89
2022/01/06 11:14:20;;;;;;;23.45;3.97;;;25.10;99.90;;;;;;5079205;28;20287;-89
2022/01/06 11:16:55;;;;;;;18.52;3.50;;;25.10;99.90;;;;;;5072947;28;20196;-88
2022/01/06 11:19:28;;;;;;;17.17;3.60;;;25.10;99.90;;;;;;5071906;28;20220;-87
2022/01/06 11:22:04;;;;;;;20.70;3.75;;;25.10;99.90;;;;;;5073117;28;20231;-88
2022/01/06 11:24:35;;;;;;;23.50;3.90;;;25.00;99.90;;;;;;5071191;28;20215;-88
2022/01/06 11:27:10;;;;;;;19.35;3.75;;;25.10;99.90;;;;;;5082264;28;20200;-88
2022/01/06 11:29:41;;;;;;;19.80;3.83;;;25.00;99.90;;;;;;5071788;28;20261;-87
2022/01/06 11:32:25;;;;;;;19.40;3.53;;;25.10;99.90;;;;;;5061374;28;20316;-89
2022/01/06 11:35:05;;;;;;;23.75;3.55;;;25.10;99.90;;;;;;5052827;28;20227;-87
2022/01/06 11:37:46;;;;;;;20.85;3.80;;;25.00;99.90;;;;;;5067281;28;20248;-86
2022/01/06 11:40:19;;;;;;;19.67;3.58;;;25.00;99.90;;;;;;5071918;28;20216;-86
2022/01/06 11:42:57;;;;;;;21.65;3.90;;;25.00;99.90;;;;;;5072391;28;20752;-87
2022/01/06 11:45:28;;;;;;;22.83;4.25;;;25.00;99.90;;;;;;5071627;28;20694;-86
2022/01/06 11:48:07;;;;;;;24.30;4.30;;;25.00;99.90;;;;;;5071802;28;20188;-89
2022/01/06 11:50:40;;;;;;;18.48;3.65;;;24.90;99.90;;;;;;5069795;28;20272;-86
2022/01/06 11:53:11;;;;;;;22.90;4.35;;;24.90;99.90;;;;;;5070499;28;20223;-88
2022/01/06 11:55:43;;;;;;;17.30;3.47;;;25.00;99.90;;;;;;5072223;28;20556;-85
2022/01/06 11:58:16;;;;;;;17.83;3.83;;;25.00;99.90;;;;;;5071639;28;20188;-86
2022/01/06 12:01:01;;;;;;;25.15;4.50;;;25.00;99.90;;;;;;5069120;28;20222;-86
2022/01/06 12:03:44;;;;;;;19.20;4.13;;;25.00;99.90;;;;;;5069503;28;20749;-88
2022/01/06 12:06:26;;;;;;;21.83;4.32;;;25.10;99.90;;;;;;5064728;28;20236;-87
2022/01/06 12:09:10;;;;;;;24.55;4.20;;;25.10;99.90;;;;;;5068025;28;20199;-91
2022/01/06 12:11:47;;;;;;;22.25;4.00;;;25.00;99.90;;;;;;5066756;28;20215;-88
2022/01/06 12:14:29;;;;;;;19.55;3.72;;;25.10;99.90;;;;;;5071308;28;20216;-88
2022/01/06 12:17:06;;;;;;;21.20;3.70;;;25.10;99.90;;;;;;5070405;28;20185;-89
2022/01/06 12:19:42;;;;;;;19.38;3.60;;;25.10;99.90;;;;;;5064931;28;20191;-94
2022/01/06 12:22:14;;;;;;;24.15;3.67;;;25.10;99.90;;;;;;5077840;28;20269;-92
2022/01/06 12:24:47;;;;;;;20.00;4.45;;;25.00;99.90;;;;;;5072866;28;20257;-90
2022/01/06 12:27:19;;;;;;;20.30;4.45;;;25.00;99.90;;;;;;5076418;28;20199;-95
2022/01/06 12:29:53;;;;;;;24.85;4.57;;;25.00;99.90;;;;;;5076231;28;20219;-95
2022/01/06 12:32:25;;;;;;;21.45;4.00;;;24.90;99.90;;;;;;5080388;28;20215;-95
2022/01/06 12:34:59;;;;;;;15.90;3.42;;;24.90;99.90;;;;;;5072278;28;20682;-91
2022/01/06 12:37:33;;;;;;;26.00;4.53;;;24.90;99.90;;;;;;5072412;28;20196;-92
2022/01/06 12:40:05;;;;;;;18.65;3.70;;;24.90;99.90;;;;;;5069822;28;20216;-89
2022/01/06 12:42:44;;;;;;;21.10;4.60;;;25.00;99.90;;;;;;5070157;28;20235;-90
2022/01/06 12:45:17;;;;;;;18.67;3.50;;;25.00;99.90;;;;;;5070436;28;20200;-89
2022/01/06 12:47:50;;;;;;;17.67;3.60;;;25.00;99.90;;;;;;5072898;28;20631;-89
2022/01/06 12:50:25;;;;;;;19.85;3.53;;;25.00;99.90;;;;;;5070591;28;20699;-93
2022/01/06 12:52:57;;;;;;;22.15;4.10;;;25.00;99.90;;;;;;5071336;28;20230;-90
2022/01/06 12:55:28;;;;;;;25.25;4.30;;;25.00;99.90;;;;;;5060806;28;20208;-89
2022/01/06 12:57:59;;;;;;;28.90;4.75;;;25.00;99.90;;;;;;5069558;28;20304;-87
2022/01/06 13:00:30;;;;;;;27.90;4.75;;;25.00;99.90;;;;;;5067909;28;20790;-88
2022/01/06 13:03:05;;;;;;;24.33;4.55;;;25.00;99.90;;;;;;5065910;28;20273;-87
2022/01/06 13:05:39;;;;;;;21.50;3.90;;;25.00;99.90;;;;;;5067760;28;20697;-85
2022/01/06 13:08:12;;;;;;;26.60;4.25;;;25.00;99.90;;;;;;5069806;28;20220;-88
2022/01/06 13:10:43;;;;;;;20.17;3.83;;;25.00;99.90;;;;;;5070732;28;20299;-88
2022/01/06 13:13:14;;;;;;;21.67;4.22;;;25.00;99.90;;;;;;5072572;28;20203;-89